createdAt,value
2022-11-05T00:00:36.205Z,7.20
2022-11-05T00:03:21.695Z,7.40
2022-11-05T00:06:09.505Z,7.25
2022-11-05T00:08:54.836Z,6.60
2022-11-05T00:11:41.905Z,6.80
2022-11-05T00:14:34.682Z,6.18
2022-11-05T00:17:01.511Z,6.50
2022-11-05T00:19:28.276Z,6.70
2022-11-05T00:22:13.628Z,6.38
2022-11-05T00:25:18.781Z,6.60
2022-11-05T00:27:51.259Z,6.10
2022-11-05T00:30:23.815Z,5.75
2022-11-05T00:32:52.694Z,6.05
2022-11-05T00:35:21.642Z,6.40
2022-11-05T00:37:50.362Z,6.03
2022-11-05T00:40:17.798Z,6.38
2022-11-05T00:43:03.823Z,6.63
2022-11-05T00:45:31.635Z,6.07
2022-11-05T00:48:17.193Z,6.28
2022-11-05T00:50:43.999Z,5.60
2022-11-05T00:53:11.185Z,6.18
2022-11-05T00:55:41.067Z,6.15
2022-11-05T00:58:10.360Z,6.60
2022-11-05T01:00:39.090Z,5.90
2022-11-05T01:03:15.191Z,6.57
2022-11-05T01:05:44.717Z,6.40
2022-11-05T01:08:13.105Z,6.75
2022-11-05T01:10:41.755Z,5.60
2022-11-05T01:13:12.916Z,4.70
2022-11-05T01:15:41.590Z,5.47
2022-11-05T01:18:08.567Z,5.28
2022-11-05T01:20:35.558Z,5.10
2022-11-05T01:23:02.379Z,6.10
2022-11-05T01:25:29.255Z,5.78
2022-11-05T01:27:56.132Z,5.40
2022-11-05T01:30:23.729Z,5.78
2022-11-05T01:32:50.726Z,4.18
2022-11-05T01:35:18.046Z,4.72
2022-11-05T01:37:45.836Z,5.10
2022-11-05T01:40:15.076Z,5.45
2022-11-05T01:42:42.564Z,4.97
2022-11-05T01:45:16.335Z,5.25
2022-11-05T01:48:09.019Z,5.10
2022-11-05T01:50:58.425Z,5.60
2022-11-05T01:53:37.039Z,5.57
2022-11-05T01:56:09.557Z,6.15
2022-11-05T01:58:55.048Z,6.38
2022-11-05T02:01:22.604Z,5.78
2022-11-05T02:03:52.282Z,6.65
2022-11-05T02:06:20.930Z,5.75
2022-11-05T02:09:11.345Z,4.90
2022-11-05T02:11:38.133Z,6.70
2022-11-05T02:14:05.191Z,6.15
2022-11-05T02:16:55.336Z,6.03
2022-11-05T02:19:43.679Z,6.88
2022-11-05T02:22:49.898Z,7.15
2022-11-05T02:25:45.965Z,6.47
2022-11-05T02:28:31.659Z,6.95
2022-11-05T02:31:23.648Z,6.53
2022-11-05T02:34:16.370Z,6.45
2022-11-05T02:37:09.239Z,7.13
2022-11-05T02:39:43.711Z,7.57
2022-11-05T02:42:38.506Z,5.53
2022-11-05T02:45:38.254Z,5.85
2022-11-05T02:48:10.928Z,5.15
2022-11-05T02:50:48.750Z,5.18
2022-11-05T02:53:22.413Z,5.20
2022-11-05T02:56:05.226Z,4.18
2022-11-05T02:58:34.541Z,4.53
2022-11-05T03:01:06.671Z,4.10
2022-11-05T03:03:42.913Z,4.10
2022-11-05T03:06:24.757Z,4.43
2022-11-05T03:09:20.078Z,4.72
2022-11-05T03:12:08.061Z,4.32
2022-11-05T03:14:40.179Z,4.10
2022-11-05T03:17:36.807Z,4.72
2022-11-05T03:20:22.506Z,4.45
2022-11-05T03:23:03.488Z,4.47
2022-11-05T03:25:32.342Z,4.05
2022-11-05T03:28:04.446Z,4.88
2022-11-05T03:30:33.787Z,4.25
2022-11-05T03:33:05.950Z,5.10
2022-11-05T03:35:39.917Z,4.70
2022-11-05T03:38:20.091Z,5.82
2022-11-05T03:40:49.556Z,4.93
2022-11-05T03:43:17.658Z,4.55
2022-11-05T03:45:52.774Z,5.45
2022-11-05T03:48:22.301Z,6.80
2022-11-05T03:51:00.694Z,5.63
2022-11-05T03:53:32.115Z,5.40
2022-11-05T03:56:27.585Z,6.15
2022-11-05T03:58:58.868Z,6.20
2022-11-05T04:01:27.262Z,5.93
2022-11-05T04:03:54.202Z,5.35
2022-11-05T04:06:39.665Z,5.72
2022-11-05T04:09:25.591Z,5.85
2022-11-05T04:12:11.361Z,6.00
2022-11-05T04:14:39.497Z,5.47
2022-11-05T04:17:06.392Z,6.13
2022-11-05T04:19:57.000Z,6.10
2022-11-05T04:22:43.911Z,5.82
2022-11-05T04:25:11.438Z,5.55
2022-11-05T04:27:38.657Z,5.25
2022-11-05T04:30:18.917Z,5.72
2022-11-05T04:33:11.026Z,5.10
2022-11-05T04:35:42.197Z,5.28
2022-11-05T04:38:11.914Z,4.55
2022-11-05T04:40:38.999Z,5.28
2022-11-05T04:43:10.647Z,5.15
2022-11-05T04:45:41.789Z,4.65
2022-11-05T04:48:08.619Z,4.60
2022-11-05T04:50:35.488Z,5.25
2022-11-05T04:53:02.482Z,4.30
2022-11-05T04:55:29.341Z,3.85
2022-11-05T04:57:56.134Z,4.68
2022-11-05T05:00:24.036Z,4.57
2022-11-05T05:02:50.906Z,3.67
2022-11-05T05:05:17.912Z,4.10
2022-11-05T05:07:44.921Z,3.35
2022-11-05T05:10:12.205Z,3.67
2022-11-05T05:12:39.406Z,3.30
2022-11-05T05:15:06.857Z,3.33
2022-11-05T05:17:37.041Z,3.50
2022-11-05T05:20:22.475Z,4.20
2022-11-05T05:22:56.031Z,3.45
2022-11-05T05:25:23.311Z,4.00
2022-11-05T05:27:50.124Z,4.22
2022-11-05T05:30:17.390Z,4.10
2022-11-05T05:32:44.363Z,3.55
2022-11-05T05:35:11.209Z,3.92
2022-11-05T05:37:38.427Z,3.95
2022-11-05T05:40:05.524Z,3.85
2022-11-05T05:42:32.619Z,4.22
2022-11-05T05:44:59.452Z,4.18
2022-11-05T05:47:26.502Z,4.38
2022-11-05T05:49:53.352Z,4.03
2022-11-05T05:52:20.130Z,4.05
2022-11-05T05:54:46.951Z,4.63
2022-11-05T05:57:13.787Z,3.58
2022-11-05T05:59:40.541Z,3.83
2022-11-05T06:02:07.520Z,4.15
2022-11-05T06:04:34.486Z,4.38
2022-11-05T06:07:01.223Z,4.47
2022-11-05T06:09:28.033Z,5.10
2022-11-05T06:11:54.959Z,5.15
2022-11-05T06:14:21.915Z,5.80
2022-11-05T06:16:48.685Z,5.53
2022-11-05T06:19:15.476Z,5.38
2022-11-05T06:21:42.270Z,5.65
2022-11-05T06:24:09.186Z,4.75
2022-11-05T06:26:36.133Z,4.80
2022-11-05T06:29:02.969Z,4.75
2022-11-05T06:31:29.724Z,4.05
2022-11-05T06:33:56.471Z,5.10
2022-11-05T06:36:23.253Z,4.80
2022-11-05T06:38:50.117Z,5.22
2022-11-05T06:41:16.950Z,4.43
2022-11-05T06:43:43.890Z,5.35
2022-11-05T06:46:11.910Z,4.80
2022-11-05T06:48:39.118Z,4.63
2022-11-05T06:51:07.953Z,4.03
2022-11-05T06:53:35.236Z,4.93
2022-11-05T06:56:06.774Z,6.00
2022-11-05T06:58:34.091Z,3.88
2022-11-05T07:01:09.021Z,5.53
2022-11-05T07:03:37.349Z,4.95
2022-11-05T07:06:05.853Z,6.05
2022-11-05T07:08:34.401Z,7.60
2022-11-05T07:11:01.439Z,5.65
2022-11-05T07:13:28.318Z,5.85
2022-11-05T07:15:55.383Z,5.60
2022-11-05T07:18:22.439Z,5.80
2022-11-05T07:20:49.400Z,5.80
2022-11-05T07:23:16.319Z,6.35
2022-11-05T07:25:43.369Z,6.03
2022-11-05T07:28:10.711Z,5.72
2022-11-05T07:30:38.092Z,5.88
2022-11-05T07:33:05.060Z,6.82
2022-11-05T07:35:32.008Z,6.72
2022-11-05T07:37:58.844Z,6.43
2022-11-05T07:40:27.712Z,7.07
2022-11-05T07:43:00.124Z,7.78
2022-11-05T07:45:28.941Z,6.10
2022-11-05T07:48:02.948Z,6.75
2022-11-05T07:50:35.387Z,6.57
2022-11-05T07:53:11.169Z,6.60
2022-11-05T07:55:40.446Z,7.47
2022-11-05T07:58:07.329Z,6.95
2022-11-05T08:00:34.341Z,6.45
2022-11-05T08:03:18.575Z,6.43
2022-11-05T08:05:47.551Z,6.63
2022-11-05T08:08:16.599Z,7.18
2022-11-05T08:10:43.459Z,6.15
2022-11-05T08:13:10.772Z,6.00
2022-11-05T08:15:38.011Z,5.80
2022-11-05T08:18:13.673Z,7.38
2022-11-05T08:20:41.863Z,6.65
2022-11-05T08:23:10.020Z,6.78
2022-11-05T08:25:37.229Z,6.18
2022-11-05T08:28:07.433Z,6.30
2022-11-05T08:30:34.995Z,6.63
2022-11-05T08:33:07.386Z,6.40
2022-11-05T08:35:35.518Z,5.23
2022-11-05T08:38:03.955Z,5.47
2022-11-05T08:40:32.469Z,6.20
2022-11-05T08:43:00.761Z,6.38
2022-11-05T08:45:28.357Z,5.72
2022-11-05T08:48:07.189Z,4.60
2022-11-05T08:50:35.067Z,5.80
2022-11-05T08:53:01.892Z,6.03
2022-11-05T08:55:29.147Z,5.28
2022-11-05T08:58:00.440Z,5.30
2022-11-05T09:00:28.786Z,5.20
2022-11-05T09:02:58.407Z,5.35
2022-11-05T09:05:25.186Z,5.22
2022-11-05T09:07:55.283Z,5.03
2022-11-05T09:10:26.702Z,5.05
2022-11-05T09:12:53.495Z,5.53
2022-11-05T09:15:20.263Z,4.40
2022-11-05T09:17:47.036Z,5.32
2022-11-05T09:20:13.897Z,4.95
2022-11-05T09:22:43.441Z,5.05
2022-11-05T09:25:10.722Z,5.00
2022-11-05T09:27:37.606Z,5.70
2022-11-05T09:30:05.592Z,6.30
2022-11-05T09:32:32.775Z,4.85
2022-11-05T09:35:01.146Z,5.80
2022-11-05T09:37:28.861Z,4.68
2022-11-05T09:39:55.801Z,4.95
2022-11-05T09:42:26.716Z,5.22
2022-11-05T09:45:01.431Z,5.13
2022-11-05T09:47:34.982Z,4.97
2022-11-05T09:50:06.898Z,4.63
2022-11-05T09:52:34.520Z,5.40
2022-11-05T09:55:04.242Z,4.97
2022-11-05T09:57:45.874Z,5.20
2022-11-05T10:00:17.359Z,6.80
2022-11-05T10:02:51.337Z,5.00
2022-11-05T10:05:19.887Z,4.88
2022-11-05T10:07:57.061Z,4.35
2022-11-05T10:10:47.088Z,4.20
2022-11-05T10:13:39.869Z,4.72
2022-11-05T10:16:27.904Z,5.03
2022-11-05T10:19:12.705Z,3.95
2022-11-05T10:22:04.947Z,4.70
2022-11-05T10:24:28.116Z,5.22
2022-11-05T10:26:55.685Z,4.47
2022-11-05T10:29:30.020Z,4.78
2022-11-05T10:31:59.999Z,4.97
2022-11-05T10:34:31.393Z,4.65
2022-11-05T10:36:58.718Z,4.35
2022-11-05T10:39:27.873Z,3.78
2022-11-05T10:42:06.359Z,3.85
2022-11-05T10:44:54.629Z,3.88
2022-11-05T10:47:51.821Z,4.10
2022-11-05T10:50:27.096Z,4.25
2022-11-05T10:53:15.085Z,3.78
2022-11-05T10:55:46.068Z,3.55
2022-11-05T10:58:15.989Z,3.15
2022-11-05T11:00:45.183Z,3.97
2022-11-05T11:03:47.620Z,3.22
2022-11-05T11:06:25.589Z,3.72
2022-11-05T11:08:57.652Z,3.40
2022-11-05T11:11:34.071Z,3.33
2022-11-05T11:14:11.670Z,4.43
2022-11-05T11:16:39.867Z,3.42
2022-11-05T11:19:28.909Z,4.25
2022-11-05T11:22:04.978Z,3.58
2022-11-05T11:24:45.152Z,3.78
2022-11-05T11:27:20.993Z,3.40
2022-11-05T11:29:52.521Z,3.35
2022-11-05T11:32:21.230Z,3.60
2022-11-05T11:34:52.522Z,3.67
2022-11-05T11:37:25.566Z,3.47
2022-11-05T11:39:57.118Z,2.95
2022-11-05T11:42:36.658Z,2.97
2022-11-05T11:45:19.879Z,3.88
2022-11-05T11:47:49.310Z,3.10
2022-11-05T11:50:33.631Z,3.20
2022-11-05T11:53:22.329Z,3.20
2022-11-05T11:55:55.495Z,3.00
2022-11-05T12:01:25.252Z,3.75
2022-11-05T12:04:00.842Z,3.45
2022-11-05T12:06:48.033Z,3.60
2022-11-05T12:09:35.086Z,3.92
2022-11-05T12:12:10.768Z,3.20
2022-11-05T12:14:48.993Z,3.00
2022-11-05T12:17:37.685Z,3.63
2022-11-05T12:20:10.525Z,3.53
2022-11-05T12:22:43.230Z,3.70
2022-11-05T12:25:22.741Z,3.28
2022-11-05T12:28:03.191Z,2.95
2022-11-05T12:30:39.599Z,3.92
2022-11-05T12:33:36.814Z,3.13
2022-11-05T12:36:13.258Z,5.10
2022-11-05T12:39:09.193Z,4.82
2022-11-05T12:42:05.772Z,4.13
2022-11-05T12:44:47.956Z,4.78
2022-11-05T12:47:49.483Z,4.03
2022-11-05T12:50:35.723Z,4.82
2022-11-05T12:53:27.783Z,4.68
2022-11-05T12:55:58.581Z,4.32
2022-11-05T12:58:42.623Z,4.75
2022-11-05T13:01:26.704Z,4.22
2022-11-05T13:04:00.916Z,3.80
2022-11-05T13:06:35.137Z,3.97
2022-11-05T13:09:04.350Z,4.28
2022-11-05T13:11:40.674Z,4.07
2022-11-05T13:14:21.578Z,4.57
2022-11-05T13:16:57.003Z,3.88
2022-11-05T13:19:31.272Z,3.30
2022-11-05T13:22:14.437Z,4.10
2022-11-05T13:24:53.009Z,4.18
2022-11-05T13:27:42.928Z,4.53
2022-11-05T13:30:17.047Z,5.15
2022-11-05T13:32:48.265Z,4.50
2022-11-05T13:35:21.193Z,4.90
2022-11-05T13:38:12.881Z,5.22
2022-11-05T13:41:06.414Z,4.65
2022-11-05T13:44:11.506Z,5.47
2022-11-05T13:46:59.512Z,4.53
2022-11-05T13:49:49.865Z,4.70
2022-11-05T13:52:51.353Z,5.05
2022-11-05T13:55:53.125Z,4.85
2022-11-05T13:58:49.900Z,5.25
2022-11-05T14:01:23.538Z,5.32
2022-11-05T14:03:53.055Z,5.65
2022-11-05T14:06:35.287Z,4.63
2022-11-05T14:09:11.063Z,5.18
2022-11-05T14:11:42.671Z,7.53
2022-11-05T14:14:18.922Z,4.57
2022-11-05T14:16:51.631Z,5.28
2022-11-05T14:19:28.372Z,6.05
2022-11-05T14:21:57.492Z,5.05
2022-11-05T14:24:45.709Z,5.35
2022-11-05T14:27:12.447Z,4.60
2022-11-05T14:29:43.624Z,4.47
2022-11-05T14:32:25.231Z,4.60
2022-11-05T14:35:34.095Z,5.53
2022-11-05T14:38:01.040Z,5.05
2022-11-05T14:40:44.279Z,5.10
2022-11-05T14:43:14.248Z,5.10
2022-11-05T14:45:56.112Z,5.05
2022-11-05T14:48:30.159Z,5.38
2022-11-05T14:50:57.127Z,5.18
2022-11-05T14:53:37.827Z,4.93
2022-11-05T14:56:09.464Z,5.22
2022-11-05T14:58:40.871Z,5.10
2022-11-05T15:01:15.114Z,4.70
2022-11-05T15:03:46.306Z,4.85
2022-11-05T15:06:32.924Z,5.50
2022-11-05T15:08:59.708Z,5.30
2022-11-05T15:11:34.505Z,4.82
2022-11-05T15:14:16.308Z,4.43
2022-11-05T15:16:47.683Z,5.20
2022-11-05T15:19:29.265Z,6.43
2022-11-05T15:21:59.550Z,6.70
2022-11-05T15:24:30.044Z,8.20
2022-11-05T15:27:05.965Z,6.28
2022-11-05T15:29:33.622Z,5.55
2022-11-05T15:32:01.158Z,5.15
2022-11-05T15:34:36.923Z,4.97
2022-11-05T15:37:13.151Z,4.30
2022-11-05T15:39:42.519Z,4.35
2022-11-05T15:42:26.931Z,4.43
2022-11-05T15:44:56.069Z,4.78
2022-11-05T15:47:34.106Z,5.80
2022-11-05T15:50:14.053Z,4.80
2022-11-05T15:52:52.711Z,5.05
2022-11-05T15:55:23.901Z,4.45
2022-11-05T15:58:00.924Z,5.88
2022-11-05T16:00:30.734Z,4.80
2022-11-05T16:03:04.691Z,5.40
2022-11-05T16:05:35.289Z,5.65
2022-11-05T16:08:04.397Z,5.93
2022-11-05T16:10:34.808Z,5.40
2022-11-05T16:13:21.503Z,5.93
2022-11-05T16:15:56.294Z,5.03
2022-11-05T16:18:29.493Z,6.05
2022-11-05T16:23:53.173Z,6.00
2022-11-05T16:29:29.873Z,7.35
2022-11-05T16:31:58.854Z,5.75
2022-11-05T16:34:41.539Z,6.85
2022-11-05T16:37:13.459Z,5.95
2022-11-05T16:39:40.807Z,6.32
2022-11-05T16:42:33.549Z,6.20
2022-11-05T16:45:00.313Z,6.40
2022-11-05T16:47:27.146Z,6.75
2022-11-05T16:49:53.966Z,6.95
2022-11-05T16:52:20.738Z,8.05
2022-11-05T16:54:47.495Z,6.97
2022-11-05T16:57:31.876Z,7.22
2022-11-05T17:00:00.230Z,7.88
2022-11-05T17:02:27.882Z,7.75
2022-11-05T17:04:54.974Z,7.70
2022-11-05T17:07:21.865Z,7.28
2022-11-05T17:09:48.705Z,7.28
2022-11-05T17:12:16.202Z,8.15
2022-11-05T17:14:43.101Z,7.93
2022-11-05T17:17:10.544Z,8.10
2022-11-05T17:19:42.196Z,8.75
2022-11-05T17:22:09.293Z,8.25
2022-11-05T17:24:36.136Z,7.80
2022-11-05T17:27:05.275Z,8.50
2022-11-05T17:29:32.126Z,9.35
2022-11-05T17:31:59.033Z,7.00
2022-11-05T17:34:25.799Z,9.30
2022-11-05T17:36:52.527Z,7.85
2022-11-05T17:39:19.346Z,8.40
2022-11-05T17:41:46.169Z,7.90
2022-11-05T17:44:12.917Z,7.53
2022-11-05T17:46:39.686Z,7.25
2022-11-05T17:49:06.658Z,7.30
2022-11-05T17:51:34.604Z,8.38
2022-11-05T17:54:01.419Z,8.98
2022-11-05T17:56:34.782Z,7.07
2022-11-05T17:59:03.541Z,7.00
2022-11-05T18:01:33.588Z,6.90
2022-11-05T18:04:07.122Z,8.38
2022-11-05T18:06:36.970Z,6.90
2022-11-05T18:09:05.350Z,6.80
2022-11-05T18:11:33.104Z,6.20
2022-11-05T18:14:00.075Z,6.75
2022-11-05T18:16:27.686Z,6.53
2022-11-05T18:18:54.554Z,6.22
2022-11-05T18:21:21.321Z,6.07
2022-11-05T18:23:48.100Z,5.82
2022-11-05T18:26:16.444Z,6.32
2022-11-05T18:28:44.373Z,6.30
2022-11-05T18:31:22.564Z,6.85
2022-11-05T18:33:50.615Z,6.35
2022-11-05T18:36:31.255Z,6.05
2022-11-05T18:38:59.489Z,5.72
2022-11-05T18:41:26.474Z,5.40
2022-11-05T18:43:53.448Z,5.63
2022-11-05T18:46:51.306Z,5.55
2022-11-05T18:49:07.644Z,6.63
2022-11-05T18:51:35.084Z,5.55
2022-11-05T18:54:01.949Z,4.97
2022-11-05T18:56:29.054Z,7.38
2022-11-05T18:59:22.031Z,7.38
2022-11-05T19:01:44.009Z,6.93
2022-11-05T19:04:11.267Z,6.03
2022-11-05T19:06:39.118Z,7.75
2022-11-05T19:09:08.537Z,8.75
2022-11-05T19:11:36.019Z,6.20
2022-11-05T19:14:02.839Z,5.97
2022-11-05T19:16:31.226Z,6.30
2022-11-05T19:19:00.140Z,8.05
2022-11-05T19:21:27.350Z,6.22
2022-11-05T19:23:56.125Z,6.53
2022-11-05T19:26:28.654Z,5.90
2022-11-05T19:28:58.789Z,7.55
2022-11-05T19:31:26.595Z,6.00
2022-11-05T19:33:54.315Z,5.30
2022-11-05T19:36:22.750Z,5.53
2022-11-05T19:38:54.841Z,6.50
2022-11-05T19:41:22.365Z,6.40
2022-11-05T19:43:49.243Z,5.47
2022-11-05T19:46:18.371Z,6.10
2022-11-05T19:48:45.685Z,7.22
2022-11-05T19:51:22.790Z,6.07
2022-11-05T19:53:52.682Z,6.70
2022-11-05T19:56:25.288Z,12.55
2022-11-05T19:58:53.272Z,6.15
2022-11-05T20:01:22.231Z,6.68
2022-11-05T20:03:49.814Z,6.15
2022-11-05T20:06:28.555Z,5.78
2022-11-05T20:09:20.681Z,5.97
2022-11-05T20:11:45.337Z,7.93
2022-11-05T20:14:13.721Z,8.35
2022-11-05T20:16:42.247Z,5.57
2022-11-05T20:19:16.681Z,6.95
2022-11-05T20:21:43.637Z,5.97
2022-11-05T20:24:20.549Z,5.38
2022-11-05T20:26:49.091Z,5.30
2022-11-05T20:29:16.323Z,4.80
2022-11-05T20:31:43.133Z,5.20
2022-11-05T20:34:10.572Z,5.85
2022-11-05T20:36:38.747Z,5.13
2022-11-05T20:39:05.846Z,5.07
2022-11-05T20:41:33.255Z,6.25
2022-11-05T20:44:00.338Z,7.82
2022-11-05T20:46:27.570Z,9.23
2022-11-05T20:48:54.807Z,5.18
2022-11-05T20:51:23.196Z,11.00
2022-11-05T20:53:57.785Z,7.20
2022-11-05T20:56:27.792Z,6.57
2022-11-05T20:58:58.386Z,4.72
2022-11-05T21:01:31.067Z,5.38
2022-11-05T21:03:59.629Z,5.35
2022-11-05T21:06:26.673Z,4.57
2022-11-05T21:08:54.587Z,5.13
2022-11-05T21:11:21.552Z,4.85
2022-11-05T21:13:50.942Z,4.93
2022-11-05T21:16:19.423Z,16.73
2022-11-05T21:18:47.323Z,6.40
2022-11-05T21:21:17.806Z,5.38
2022-11-05T21:23:44.742Z,5.38
2022-11-05T21:26:13.899Z,5.40
2022-11-05T21:28:42.123Z,4.95
2022-11-05T21:31:10.138Z,4.28
2022-11-05T21:33:37.406Z,4.70
2022-11-05T21:36:09.292Z,4.18
2022-11-05T21:38:36.560Z,8.57
2022-11-05T21:41:04.689Z,6.43
2022-11-05T21:43:31.804Z,8.70
2022-11-05T21:46:02.257Z,5.63
2022-11-05T21:48:29.103Z,6.45
2022-11-05T21:51:14.718Z,4.90
2022-11-05T21:54:00.068Z,4.20
2022-11-05T21:56:46.270Z,5.65
2022-11-05T21:59:37.506Z,7.18
2022-11-05T22:02:05.260Z,5.07
2022-11-05T22:04:37.700Z,4.72
2022-11-05T22:07:06.812Z,4.67
2022-11-05T22:09:34.386Z,5.38
2022-11-05T22:12:01.861Z,4.90
2022-11-05T22:14:28.949Z,5.15
2022-11-05T22:16:56.531Z,4.72
2022-11-05T22:19:25.167Z,5.20
2022-11-05T22:21:52.030Z,7.38
2022-11-05T22:24:19.338Z,5.50
2022-11-05T22:26:46.226Z,5.70
2022-11-05T22:29:13.845Z,6.03
2022-11-05T22:31:40.845Z,5.10
2022-11-05T22:34:09.535Z,5.38
2022-11-05T22:36:36.409Z,5.47
2022-11-05T22:39:03.584Z,6.28
2022-11-05T22:41:30.485Z,5.93
2022-11-05T22:43:57.972Z,6.68
2022-11-05T22:46:26.243Z,6.53
2022-11-05T22:48:53.526Z,5.80
2022-11-05T22:51:22.804Z,6.38
2022-11-05T22:53:50.247Z,5.63
2022-11-05T22:56:20.046Z,5.45
2022-11-05T22:58:47.525Z,6.72
2022-11-05T23:01:15.806Z,6.35
2022-11-05T23:03:44.611Z,5.43
2022-11-05T23:06:45.012Z,6.63
2022-11-05T23:09:38.283Z,5.97
2022-11-05T23:12:09.364Z,6.05
2022-11-05T23:14:36.911Z,9.65
2022-11-05T23:17:22.289Z,7.25
2022-11-05T23:20:07.603Z,8.90
2022-11-05T23:22:52.942Z,8.32
2022-11-05T23:25:22.005Z,6.38
2022-11-05T23:27:51.333Z,6.88
2022-11-05T23:30:21.526Z,6.18
2022-11-05T23:32:48.970Z,5.78
2022-11-05T23:35:16.192Z,5.55
2022-11-05T23:38:01.495Z,6.65
2022-11-05T23:40:30.980Z,5.82
2022-11-05T23:43:16.339Z,6.05
2022-11-05T23:45:59.114Z,6.40
2022-11-05T23:48:32.268Z,5.65
2022-11-05T23:53:26.752Z,6.38
2022-11-05T23:55:53.625Z,8.32
2022-11-05T23:58:20.474Z,5.95
